Weldon Spring Heights, Missouri
Current Conditions -  °F | °C
As of 3:54 AM on Saturday 25 Oct 2014 (Local Time) from KSUS Reporting Station
Scattered Clouds Scattered Clouds  
Wind Chill: 59°   Ceiling: Unl
Heat Index: 59°   Visibility: 10mi
Dew Point: 57°   Wind: 3mph
Humidity: 93%   Direction: 260°W
Pressure: 29.98"   Gusts: NA
Location:  38.7167°N, 90.6411°W
Report Text: KSUS 250854Z AUTO 26003KT 10SM SCT040 15/14 A2998 RMK AO2 SLP146 T01500139 55001 TSNO
Loading
Personal Weather Stations






























Interactive Weather Map
Tropical Storm Tracking
New forecast layout! Learn more

10-Day Weather Forecast

Advertisements
Track Severe Weather on mobile